createdAt,value
2018-09-28T00:00:04.960Z,12.50
2018-09-28T00:02:32.576Z,12.60
2018-09-28T00:05:00.261Z,12.50
2018-09-28T00:07:27.912Z,12.50
2018-09-28T00:09:55.537Z,12.50
2018-09-28T00:12:23.286Z,12.40
2018-09-28T00:14:51.309Z,12.50
2018-09-28T00:17:19.194Z,12.50
2018-09-28T00:19:46.861Z,12.50
2018-09-28T00:22:14.460Z,12.30
2018-09-28T00:24:42.109Z,12.20
2018-09-28T00:27:09.741Z,12.10
2018-09-28T00:29:37.437Z,11.90
2018-09-28T00:32:05.138Z,11.80
2018-09-28T00:34:32.831Z,11.80
2018-09-28T00:37:00.464Z,11.90
2018-09-28T00:39:28.169Z,11.90
2018-09-28T00:41:55.829Z,11.90
2018-09-28T00:44:23.488Z,11.90
2018-09-28T00:46:51.112Z,11.90
2018-09-28T00:49:18.760Z,11.80
2018-09-28T00:51:46.577Z,11.70
2018-09-28T00:54:14.316Z,11.60
2018-09-28T00:56:42.014Z,11.50
2018-09-28T00:59:09.824Z,11.40
2018-09-28T01:01:37.496Z,11.30
2018-09-28T01:04:05.332Z,11.20
2018-09-28T01:06:33.081Z,11.20
2018-09-28T01:09:00.841Z,11.20
2018-09-28T01:11:28.852Z,11.20
2018-09-28T01:13:56.532Z,11.20
2018-09-28T01:16:24.196Z,11.20
2018-09-28T01:18:51.888Z,11.30
2018-09-28T01:21:19.673Z,11.40
2018-09-28T01:23:47.384Z,11.30
2018-09-28T01:26:15.131Z,11.30
2018-09-28T01:28:42.832Z,11.30
2018-09-28T01:31:10.476Z,11.20
2018-09-28T01:33:38.164Z,11.10
2018-09-28T01:36:05.770Z,11.00
2018-09-28T01:38:33.428Z,11.10
2018-09-28T01:41:01.143Z,11.10
2018-09-28T01:43:28.768Z,11.10
2018-09-28T01:45:56.408Z,11.10
2018-09-28T01:48:24.036Z,11.10
2018-09-28T01:50:51.698Z,11.10
2018-09-28T01:53:19.373Z,10.90
2018-09-28T01:55:47.009Z,10.80
2018-09-28T01:58:14.662Z,10.80
2018-09-28T02:00:42.354Z,10.70
2018-09-28T02:03:10.001Z,10.60
2018-09-28T02:05:37.602Z,10.70
2018-09-28T02:08:05.331Z,10.70
2018-09-28T02:10:33.112Z,10.70
2018-09-28T02:13:00.786Z,10.60
2018-09-28T02:15:28.444Z,10.50
2018-09-28T02:17:56.155Z,10.50
2018-09-28T02:20:23.829Z,10.50
2018-09-28T02:22:51.426Z,10.50
2018-09-28T02:25:19.061Z,10.40
2018-09-28T02:27:46.748Z,10.30
2018-09-28T02:30:14.488Z,10.20
2018-09-28T02:32:42.282Z,10.20
2018-09-28T02:35:09.932Z,10.20
2018-09-28T02:37:37.609Z,10.10
2018-09-28T02:40:05.595Z,10.00
2018-09-28T02:42:33.521Z,10.00
2018-09-28T02:45:01.491Z,10.20
2018-09-28T02:47:29.178Z,10.30
2018-09-28T02:49:56.844Z,10.30
2018-09-28T02:52:24.517Z,10.30
2018-09-28T02:54:52.196Z,10.30
2018-09-28T02:57:19.867Z,10.30
2018-09-28T02:59:47.589Z,10.30
2018-09-28T03:02:15.304Z,10.30
2018-09-28T03:04:43.031Z,10.40
2018-09-28T03:07:11.242Z,10.40
2018-09-28T03:09:39.240Z,10.50
2018-09-28T03:12:07.242Z,10.60
2018-09-28T03:14:35.209Z,10.50
2018-09-28T03:17:03.261Z,10.60
2018-09-28T03:19:31.317Z,10.60
2018-09-28T03:21:59.203Z,10.70
2018-09-28T03:24:27.262Z,10.70
2018-09-28T03:26:55.276Z,10.70
2018-09-28T03:29:23.296Z,10.70
2018-09-28T03:31:51.304Z,10.70
2018-09-28T03:34:19.016Z,10.70
2018-09-28T03:36:46.652Z,10.60
2018-09-28T03:39:14.424Z,10.70
2018-09-28T03:41:42.178Z,10.70
2018-09-28T03:44:09.826Z,10.70
2018-09-28T03:46:37.419Z,10.60
2018-09-28T03:49:05.097Z,10.60
2018-09-28T03:51:32.753Z,10.60
2018-09-28T03:54:00.524Z,10.60
2018-09-28T03:56:28.462Z,10.60
2018-09-28T03:58:56.469Z,10.60
2018-09-28T04:01:24.333Z,10.60
2018-09-28T04:03:52.215Z,10.60
2018-09-28T04:06:20.143Z,10.60
2018-09-28T04:08:47.793Z,10.70
2018-09-28T04:11:15.537Z,10.70
2018-09-28T04:13:43.300Z,10.60
2018-09-28T04:16:11.261Z,10.70
2018-09-28T04:18:39.105Z,10.60
2018-09-28T04:21:07.084Z,10.60
2018-09-28T04:23:35.233Z,10.70
2018-09-28T04:26:03.009Z,10.70
2018-09-28T04:28:31.117Z,10.60
2018-09-28T04:30:59.302Z,10.60
2018-09-28T04:33:27.303Z,10.60
2018-09-28T04:35:55.260Z,10.60
2018-09-28T04:38:23.262Z,10.60
2018-09-28T04:40:51.113Z,10.60
2018-09-28T04:43:19.216Z,10.60
2018-09-28T04:45:47.337Z,10.70
2018-09-28T04:48:15.179Z,10.60
2018-09-28T04:50:42.914Z,10.50
2018-09-28T04:53:10.760Z,10.50
2018-09-28T04:55:38.506Z,10.30
2018-09-28T04:58:06.212Z,10.30
2018-09-28T05:00:34.016Z,10.10
2018-09-28T05:03:01.825Z,10.10
2018-09-28T05:05:29.857Z,10.10
2018-09-28T05:07:57.801Z,10.10
2018-09-28T05:10:25.789Z,10.10
2018-09-28T05:12:54.088Z,10.00
2018-09-28T05:15:21.775Z,9.90
2018-09-28T05:17:50.270Z,10.00
2018-09-28T05:20:17.896Z,10.00
2018-09-28T05:22:45.581Z,10.10
2018-09-28T05:25:13.350Z,10.10
2018-09-28T05:27:41.100Z,10.10
2018-09-28T05:30:09.122Z,10.10
2018-09-28T05:32:37.023Z,10.10
2018-09-28T05:35:04.584Z,10.10
2018-09-28T05:37:32.189Z,10.10
2018-09-28T05:39:59.907Z,10.10
2018-09-28T05:42:27.657Z,10.20
2018-09-28T05:44:59.101Z,10.20
2018-09-28T05:47:26.958Z,10.20
2018-09-28T05:49:54.636Z,10.20
2018-09-28T05:52:23.036Z,10.20
2018-09-28T05:54:50.637Z,10.30
2018-09-28T05:57:18.256Z,10.10
2018-09-28T05:59:51.363Z,10.20
2018-09-28T06:02:24.537Z,10.00
2018-09-28T06:04:57.735Z,9.90
2018-09-28T06:07:25.385Z,10.10
2018-09-28T06:09:53.181Z,10.30
2018-09-28T06:12:21.125Z,10.30
2018-09-28T06:14:48.823Z,10.20
2018-09-28T06:17:16.477Z,10.30
2018-09-28T06:19:44.178Z,10.30
2018-09-28T06:22:12.001Z,10.30
2018-09-28T06:24:40.037Z,10.40
2018-09-28T06:27:07.907Z,10.60
2018-09-28T06:29:35.680Z,10.60
2018-09-28T06:32:03.571Z,10.70
2018-09-28T06:34:31.376Z,10.80
2018-09-28T06:36:59.055Z,10.90
2018-09-28T06:39:26.782Z,11.00
2018-09-28T06:41:54.604Z,11.20
2018-09-28T06:44:22.320Z,11.30
2018-09-28T06:46:50.015Z,11.40
2018-09-28T06:49:17.761Z,11.70
2018-09-28T06:51:45.538Z,12.00
2018-09-28T06:54:13.305Z,12.20
2018-09-28T06:56:40.970Z,12.40
2018-09-28T06:59:08.843Z,12.60
2018-09-28T07:01:36.632Z,12.60
2018-09-28T07:04:04.576Z,12.80
2018-09-28T07:06:34.242Z,13.10
2018-09-28T07:09:03.320Z,13.40
2018-09-28T07:11:31.644Z,13.60
2018-09-28T07:13:59.416Z,13.80
2018-09-28T07:16:27.521Z,14.10
2018-09-28T07:18:55.437Z,14.20
2018-09-28T07:21:25.630Z,14.40
2018-09-28T07:23:53.761Z,14.60
2018-09-28T07:26:21.586Z,14.70
2018-09-28T07:28:49.203Z,14.90
2018-09-28T07:31:16.920Z,14.90
2018-09-28T07:33:44.644Z,14.80
2018-09-28T07:36:13.135Z,15.00
2018-09-28T07:38:40.853Z,15.30
2018-09-28T07:41:08.793Z,15.60
2018-09-28T07:43:36.520Z,15.70
2018-09-28T07:46:04.505Z,16.00
2018-09-28T07:48:32.460Z,16.20
2018-09-28T07:51:00.377Z,16.30
2018-09-28T07:53:28.099Z,16.40
2018-09-28T07:55:55.870Z,16.50
2018-09-28T07:58:23.508Z,16.70
2018-09-28T08:00:51.841Z,16.90
2018-09-28T08:03:24.065Z,17.20
2018-09-28T08:05:51.665Z,17.50
2018-09-28T08:08:19.364Z,17.70
2018-09-28T08:10:47.045Z,17.80
2018-09-28T08:13:14.750Z,18.00
2018-09-28T08:15:42.550Z,18.30
2018-09-28T08:18:10.429Z,18.50
2018-09-28T08:20:38.197Z,18.70
2018-09-28T08:23:05.884Z,18.70
2018-09-28T08:25:33.508Z,18.90
2018-09-28T08:28:01.169Z,18.90
2018-09-28T08:30:29.009Z,18.90
2018-09-28T08:32:56.745Z,18.90
2018-09-28T08:35:24.457Z,18.80
2018-09-28T08:37:52.112Z,19.20
2018-09-28T08:40:19.909Z,19.40
2018-09-28T08:42:47.712Z,19.70
2018-09-28T08:45:15.622Z,20.10
2018-09-28T08:47:43.278Z,20.40
2018-09-28T08:50:10.956Z,20.60
2018-09-28T08:52:38.712Z,20.60
2018-09-28T08:55:06.643Z,20.70
2018-09-28T08:57:34.312Z,20.70
2018-09-28T09:00:02.179Z,20.50
2018-09-28T09:02:30.041Z,20.20
2018-09-28T09:04:57.665Z,20.50
2018-09-28T09:07:25.418Z,20.70
2018-09-28T09:09:53.072Z,20.80
2018-09-28T09:12:20.845Z,21.20
2018-09-28T09:14:48.495Z,21.40
2018-09-28T09:17:16.141Z,21.70
2018-09-28T09:19:43.982Z,21.60
2018-09-28T09:22:11.812Z,21.50
2018-09-28T09:24:39.543Z,21.50
2018-09-28T09:27:07.272Z,21.50
2018-09-28T09:29:35.231Z,21.50
2018-09-28T09:32:03.141Z,21.70
2018-09-28T09:34:30.844Z,21.90
2018-09-28T09:36:58.912Z,22.30
2018-09-28T09:39:27.526Z,22.50
2018-09-28T09:41:55.407Z,22.40
2018-09-28T09:44:42.543Z,22.40
2018-09-28T09:47:11.342Z,22.50
2018-09-28T09:49:39.446Z,22.70
2018-09-28T09:52:11.677Z,22.90
2018-09-28T09:54:39.312Z,23.10
2018-09-28T09:57:07.002Z,23.00
2018-09-28T09:59:34.872Z,22.90
2018-09-28T10:02:08.197Z,23.00
2018-09-28T10:04:35.892Z,23.10
2018-09-28T10:07:03.804Z,23.30
2018-09-28T10:09:31.883Z,23.20
2018-09-28T10:12:03.052Z,22.90
2018-09-28T10:14:30.800Z,22.80
2018-09-28T10:16:58.632Z,22.70
2018-09-28T10:19:26.828Z,22.80
2018-09-28T10:21:54.617Z,23.10
2018-09-28T10:24:22.344Z,23.20
2018-09-28T10:26:50.297Z,23.00
2018-09-28T10:29:18.259Z,23.00
2018-09-28T10:31:46.011Z,23.10
2018-09-28T10:34:14.025Z,23.20
2018-09-28T10:36:41.789Z,22.50
2018-09-28T10:39:09.843Z,22.50
2018-09-28T10:41:38.807Z,22.90
2018-09-28T10:44:06.664Z,23.30
2018-09-28T10:46:34.419Z,23.70
2018-09-28T10:49:02.084Z,24.00
2018-09-28T10:51:29.893Z,24.10
2018-09-28T10:53:57.540Z,24.00
2018-09-28T10:56:25.144Z,24.00
2018-09-28T10:58:52.937Z,23.90
2018-09-28T11:01:20.549Z,23.80
2018-09-28T11:03:48.375Z,23.80
2018-09-28T11:06:16.049Z,24.10
2018-09-28T11:08:43.824Z,24.20
2018-09-28T11:11:11.539Z,24.10
2018-09-28T11:13:39.280Z,24.20
2018-09-28T11:16:10.935Z,24.30
2018-09-28T11:18:39.773Z,24.10
2018-09-28T11:21:07.495Z,24.20
2018-09-28T11:23:35.293Z,24.10
2018-09-28T11:26:03.137Z,23.70
2018-09-28T11:28:30.837Z,23.60
2018-09-28T11:30:58.537Z,23.60
2018-09-28T11:33:26.303Z,23.30
2018-09-28T11:35:54.036Z,23.50
2018-09-28T11:38:21.842Z,23.60
2018-09-28T11:40:50.664Z,23.50
2018-09-28T11:43:18.335Z,23.50
2018-09-28T11:45:46.288Z,23.70
2018-09-28T11:48:14.146Z,23.40
2018-09-28T11:50:41.952Z,23.10
2018-09-28T11:53:09.962Z,23.10
2018-09-28T11:55:37.805Z,23.20
2018-09-28T11:58:09.741Z,23.40
2018-09-28T12:00:37.536Z,23.60
2018-09-28T12:03:06.446Z,23.70
2018-09-28T12:05:34.222Z,23.90
2018-09-28T12:08:01.974Z,24.00
2018-09-28T12:10:29.717Z,23.90
2018-09-28T12:12:57.525Z,23.80
2018-09-28T12:15:25.447Z,23.60
2018-09-28T12:17:53.106Z,23.50
2018-09-28T12:20:21.001Z,23.60
2018-09-28T12:22:48.786Z,23.70
2018-09-28T12:25:16.803Z,23.60
2018-09-28T12:27:44.666Z,23.70
2018-09-28T12:30:12.918Z,23.80
2018-09-28T12:32:41.838Z,23.30
2018-09-28T12:35:09.652Z,23.20
2018-09-28T12:37:38.478Z,23.30
2018-09-28T12:40:06.790Z,23.50
2018-09-28T12:42:34.607Z,23.60
2018-09-28T12:45:02.592Z,23.70
2018-09-28T12:47:30.278Z,23.50
2018-09-28T12:49:58.149Z,23.20
2018-09-28T12:52:26.014Z,23.10
2018-09-28T12:54:53.809Z,23.30
2018-09-28T12:57:21.534Z,23.30
2018-09-28T12:59:49.268Z,23.20
2018-09-28T13:02:17.019Z,23.20
2018-09-28T13:04:45.922Z,23.20
2018-09-28T13:07:13.661Z,23.20
2018-09-28T13:09:41.299Z,23.10
2018-09-28T13:12:09.136Z,23.10
2018-09-28T13:14:36.897Z,23.00
2018-09-28T13:17:04.609Z,23.10
2018-09-28T13:19:32.324Z,23.10
2018-09-28T13:22:00.277Z,22.90
2018-09-28T13:24:28.251Z,22.70
2018-09-28T13:26:55.969Z,22.40
2018-09-28T13:29:23.654Z,22.50
2018-09-28T13:31:51.365Z,22.40
2018-09-28T13:34:19.096Z,22.50
2018-09-28T13:36:46.792Z,22.70
2018-09-28T13:39:14.553Z,22.80
2018-09-28T13:41:42.562Z,22.90
2018-09-28T13:44:10.294Z,23.00
2018-09-28T13:46:38.050Z,23.20
2018-09-28T13:49:05.808Z,23.30
2018-09-28T13:51:33.529Z,23.20
2018-09-28T13:54:01.605Z,23.10
2018-09-28T13:56:33.523Z,22.70
2018-09-28T13:59:02.326Z,22.50
2018-09-28T14:01:31.284Z,22.30
2018-09-28T14:04:02.773Z,22.30
2018-09-28T14:09:17.551Z,22.10
2018-09-28T14:11:45.334Z,22.20
2018-09-28T14:14:13.225Z,22.20
2018-09-28T14:16:41.480Z,22.10
2018-09-28T14:19:09.597Z,22.00
2018-09-28T14:21:38.359Z,22.00
2018-09-28T14:24:06.345Z,22.10
2018-09-28T14:26:34.657Z,22.20
2018-09-28T14:29:03.016Z,22.20
2018-09-28T14:36:08.063Z,22.00
2018-09-28T14:38:41.307Z,22.00
2018-09-28T14:41:15.753Z,22.00
2018-09-28T14:43:44.705Z,21.90
2018-09-28T14:46:32.729Z,21.90
2018-09-28T14:49:01.872Z,21.70
2018-09-28T14:51:37.790Z,21.60
2018-09-28T14:54:05.642Z,21.70
2018-09-28T14:56:33.492Z,21.70
2018-09-28T14:59:07.388Z,21.60
2018-09-28T15:07:55.941Z,21.50
2018-09-28T15:13:18.219Z,21.60
2018-09-28T15:15:47.388Z,21.60
2018-09-28T15:18:17.011Z,21.40
2018-09-28T15:20:45.533Z,21.50
2018-09-28T15:23:14.278Z,21.60
2018-09-28T15:25:43.527Z,21.60
2018-09-28T15:28:11.988Z,21.70
2018-09-28T15:30:41.102Z,21.80
2018-09-28T15:33:09.792Z,21.60
2018-09-28T15:35:39.891Z,21.60
2018-09-28T15:38:08.645Z,21.40
2018-09-28T15:40:37.145Z,21.30
2018-09-28T15:43:06.699Z,21.20
2018-09-28T15:45:35.829Z,21.20
2018-09-28T15:48:05.191Z,21.20
2018-09-28T15:50:34.842Z,21.20
2018-09-28T15:53:03.075Z,21.20
2018-09-28T15:55:30.984Z,21.20
2018-09-28T15:57:58.576Z,21.30
2018-09-28T16:00:26.165Z,21.20
2018-09-28T16:02:53.801Z,21.20
2018-09-28T16:05:21.444Z,21.00
2018-09-28T16:07:49.033Z,21.00
2018-09-28T16:10:16.715Z,20.90
2018-09-28T16:12:44.308Z,20.90
2018-09-28T16:15:12.077Z,20.90
2018-09-28T16:17:39.636Z,20.90
2018-09-28T16:20:07.313Z,20.90
2018-09-28T16:22:34.971Z,20.90
2018-09-28T16:25:02.650Z,20.90
2018-09-28T16:27:30.240Z,20.90
2018-09-28T16:29:57.840Z,20.90
2018-09-28T16:32:25.419Z,20.90
2018-09-28T16:34:52.993Z,20.90
2018-09-28T16:37:21.196Z,20.90
2018-09-28T16:39:48.937Z,20.70
2018-09-28T16:42:16.528Z,20.60
2018-09-28T16:44:44.458Z,20.60
2018-09-28T16:47:12.249Z,20.60
2018-09-28T16:49:40.069Z,20.50
2018-09-28T16:52:07.845Z,20.50
2018-09-28T16:54:35.685Z,20.50
2018-09-28T16:57:03.420Z,20.50
2018-09-28T16:59:31.557Z,20.50
2018-09-28T17:01:59.372Z,20.50
2018-09-28T17:04:27.237Z,20.30
2018-09-28T17:06:55.004Z,20.30
2018-09-28T17:09:22.787Z,20.30
2018-09-28T17:11:50.718Z,20.20
2018-09-28T17:14:18.471Z,20.20
2018-09-28T17:16:46.237Z,20.20
2018-09-28T17:19:14.081Z,20.20
2018-09-28T17:21:41.858Z,19.90
2018-09-28T17:24:09.638Z,19.80
2018-09-28T17:26:37.407Z,19.80
2018-09-28T17:29:05.477Z,19.70
2018-09-28T17:31:33.425Z,19.70
2018-09-28T17:34:01.165Z,19.70
2018-09-28T17:36:28.840Z,19.70
2018-09-28T17:38:56.599Z,19.70
2018-09-28T17:41:24.380Z,19.60
2018-09-28T17:43:52.368Z,19.60
2018-09-28T17:46:20.285Z,19.70
2018-09-28T17:48:48.237Z,19.60
2018-09-28T17:51:15.966Z,19.50
2018-09-28T17:53:43.970Z,19.30
2018-09-28T17:56:11.793Z,19.20
2018-09-28T17:58:39.484Z,19.10
2018-09-28T18:01:07.218Z,19.10
2018-09-28T18:03:34.867Z,19.10
2018-09-28T18:06:02.515Z,19.10
2018-09-28T18:08:30.370Z,18.90
2018-09-28T18:10:58.768Z,18.90
2018-09-28T18:13:26.345Z,18.90
2018-09-28T18:15:54.026Z,18.80
2018-09-28T18:18:21.704Z,18.60
2018-09-28T18:20:49.483Z,18.50
2018-09-28T18:23:17.140Z,18.50
2018-09-28T18:25:45.142Z,18.40
2018-09-28T18:28:12.811Z,18.40
2018-09-28T18:30:40.568Z,18.30
2018-09-28T18:33:08.354Z,18.10
2018-09-28T18:35:36.056Z,18.00
2018-09-28T18:38:03.663Z,17.80
2018-09-28T18:40:31.313Z,17.80
2018-09-28T18:42:59.077Z,17.80
2018-09-28T18:45:27.885Z,17.70
2018-09-28T18:47:56.760Z,17.60
2018-09-28T18:50:27.365Z,17.60
2018-09-28T18:52:55.633Z,17.70
2018-09-28T18:55:23.549Z,17.80
2018-09-28T18:57:54.341Z,17.80
2018-09-28T19:00:22.698Z,17.60
2018-09-28T19:02:50.515Z,17.60
2018-09-28T19:05:18.697Z,17.50
2018-09-28T19:07:52.878Z,17.50
2018-09-28T19:12:54.276Z,17.20
2018-09-28T19:15:22.261Z,17.10
2018-09-28T19:18:05.576Z,17.10
2018-09-28T19:20:45.641Z,17.00
2018-09-28T19:23:17.050Z,16.90
2018-09-28T19:28:59.090Z,16.70
2018-09-28T19:31:40.786Z,16.70
2018-09-28T19:34:09.557Z,16.50
2018-09-28T19:36:38.425Z,16.40
2018-09-28T19:39:19.898Z,16.20
2018-09-28T19:41:52.882Z,16.00
2018-09-28T19:44:22.919Z,16.10
2018-09-28T19:46:53.830Z,16.00
2018-09-28T19:49:29.908Z,16.00
2018-09-28T19:51:59.653Z,15.90
2018-09-28T19:57:03.946Z,16.00
2018-09-28T19:59:34.389Z,15.80
2018-09-28T20:02:03.875Z,15.90
2018-09-28T20:04:33.164Z,16.00
2018-09-28T20:07:01.889Z,15.90
2018-09-28T20:09:29.907Z,16.00
2018-09-28T20:11:58.581Z,16.10
2018-09-28T20:14:29.910Z,16.00
2018-09-28T20:16:58.811Z,15.90
2018-09-28T20:19:27.562Z,15.70
2018-09-28T20:21:56.071Z,15.70
2018-09-28T20:24:26.534Z,15.60
2018-09-28T20:26:56.784Z,15.60
2018-09-28T20:29:25.239Z,15.40
2018-09-28T20:31:53.125Z,15.30
2018-09-28T20:34:20.994Z,15.30
2018-09-28T20:36:48.779Z,15.30
2018-09-28T20:39:16.896Z,15.20
2018-09-28T20:41:45.233Z,15.30
2018-09-28T20:44:14.061Z,15.30
2018-09-28T20:46:42.388Z,15.20
2018-09-28T20:49:10.377Z,15.20
2018-09-28T20:51:39.770Z,15.30
2018-09-28T20:54:07.494Z,15.30
2018-09-28T20:56:35.133Z,15.20
2018-09-28T20:59:02.792Z,15.30
2018-09-28T21:01:30.417Z,15.40
2018-09-28T21:03:58.005Z,15.30
2018-09-28T21:06:25.781Z,15.20
2018-09-28T21:08:53.477Z,15.10
2018-09-28T21:11:21.230Z,15.10
2018-09-28T21:13:49.216Z,15.10
2018-09-28T21:16:18.922Z,15.10
2018-09-28T21:18:46.962Z,15.20
2018-09-28T21:21:15.590Z,15.20
2018-09-28T21:23:43.989Z,15.10
2018-09-28T21:26:12.956Z,15.00
2018-09-28T21:28:43.594Z,14.70
2018-09-28T21:31:19.042Z,14.50
2018-09-28T21:33:47.914Z,14.50
2018-09-28T21:36:25.072Z,14.40
2018-09-28T21:38:59.869Z,14.40
2018-09-28T21:41:35.283Z,14.30
2018-09-28T21:44:03.946Z,14.20
2018-09-28T21:46:34.427Z,14.20
2018-09-28T21:49:04.191Z,14.10
2018-09-28T21:51:33.058Z,14.10
2018-09-28T21:54:03.983Z,14.10
2018-09-28T21:56:32.908Z,14.00
2018-09-28T21:59:02.127Z,14.10
2018-09-28T22:01:31.766Z,14.10
2018-09-28T22:04:01.544Z,14.10
2018-09-28T22:06:30.727Z,14.00
2018-09-28T22:08:59.807Z,14.00
2018-09-28T22:11:29.762Z,14.10
2018-09-28T22:13:58.787Z,14.10
2018-09-28T22:16:30.029Z,14.20
2018-09-28T22:18:59.489Z,14.10
2018-09-28T22:21:29.008Z,14.00
2018-09-28T22:29:52.404Z,14.00
2018-09-28T22:32:21.073Z,13.90
2018-09-28T22:34:51.880Z,13.80
2018-09-28T22:37:20.646Z,13.70
2018-09-28T22:39:52.786Z,13.60
2018-09-28T22:42:22.576Z,13.70
2018-09-28T22:48:41.331Z,13.70
2018-09-28T22:51:09.746Z,13.60
2018-09-28T22:53:38.218Z,13.60
2018-09-28T22:56:07.604Z,13.70
2018-09-28T22:58:38.973Z,13.80
2018-09-28T23:01:07.892Z,13.90
2018-09-28T23:03:36.490Z,13.80
2018-09-28T23:06:06.026Z,13.80
2018-09-28T23:08:35.164Z,13.70
2018-09-28T23:11:03.836Z,13.70
2018-09-28T23:13:33.297Z,13.60
2018-09-28T23:16:01.748Z,13.60
2018-09-28T23:18:30.162Z,13.60
2018-09-28T23:20:58.516Z,13.60
2018-09-28T23:23:29.711Z,13.50
2018-09-28T23:25:58.020Z,13.50
2018-09-28T23:31:07.562Z,13.40
2018-09-28T23:33:36.706Z,13.40
2018-09-28T23:36:04.849Z,13.40
2018-09-28T23:38:33.268Z,13.50
2018-09-28T23:41:01.512Z,13.30
2018-09-28T23:43:29.928Z,13.40
2018-09-28T23:45:57.835Z,13.20
2018-09-28T23:48:25.761Z,13.30
2018-09-28T23:50:53.740Z,13.20
2018-09-28T23:53:21.429Z,13.10
2018-09-28T23:55:49.183Z,13.00
2018-09-28T23:58:17.233Z,13.10
